Terminal Aerodrome Forecast
Issued by NWS Pueblo, CO

Home | Current Version | Previous Version | Text Only | Print | Product List | Glossary On
Versions: 1 2 3 4 5 6 7 8 9 10 11 12 13 14 15 16 17 18 19
000
FTUS45 KPUB 032326
TAFCOS
TAF
KCOS 032326Z 0400/0424 VRB05KT P6SM SCT060 SCT140
     FM040300 36007KT P6SM FEW060 SCT140
     FM041800 16009KT P6SM FEW100 SCT200=

USA.gov is the U.S. government's official web portal to all federal, state and local government web resources and services.